Time;durP1;ratioP1;P1;durP2;ratioP2;P2;SDS_P1;SDS_P2;PMS_P1;PMS_P2;Temp;Humidity;BMP_temperature;BMP_pressure;BME280_temperature;BME280_humidity;BME280_pressure;Samples;Min_cycle;Max_cycle;Signal;HPM_P1;HPM_P2
2023/11/14 00:00:31;;;;;;;2.65;1.95;;;;;;;9.74;100.00;99209.16;4732103;30;20212;-66
2023/11/14 00:03:10;;;;;;;2.25;1.42;;;9.20;99.90;;;9.85;100.00;99216.44;4730570;30;20578;-66
2023/11/14 00:05:48;;;;;;;4.82;1.95;;;9.60;99.90;;;9.94;100.00;99220.41;4734534;30;20249;-65
2023/11/14 00:08:21;;;;;;;8.13;1.73;;;;;;;10.04;100.00;99232.25;4750242;30;20203;-65
2023/11/14 00:10:59;;;;;;;2.95;1.42;;;;;;;10.02;100.00;99226.25;4735721;30;20265;-66
2023/11/14 00:13:35;;;;;;;8.73;1.83;;;;;;;10.11;100.00;99228.59;4750310;30;20289;-66
2023/11/14 00:16:11;;;;;;;5.05;2.33;;;;;;;10.14;100.00;99236.22;4735666;30;20436;-65
2023/11/14 00:18:47;;;;;;;3.13;1.00;;;;;;;10.20;100.00;99227.19;4735003;30;20211;-66
2023/11/14 00:21:21;;;;;;;8.73;2.10;;;;;;;10.21;100.00;99228.84;4735244;30;20477;-65
2023/11/14 00:23:58;;;;;;;4.80;1.25;;;;;;;10.25;100.00;99233.53;4735258;30;20228;-67
2023/11/14 00:26:32;;;;;;;6.63;1.80;;;;;;;10.23;100.00;99230.22;4735402;30;20210;-65
2023/11/14 00:29:07;;;;;;;6.53;1.67;;;;;;;10.12;100.00;99233.75;4730024;30;20473;-65
2023/11/14 00:31:43;;;;;;;3.43;1.27;;;;;;;10.15;100.00;99230.59;4735027;30;20437;-66
2023/11/14 00:34:18;;;;;;;1.73;1.17;;;;;;;10.17;100.00;99247.41;4736805;30;20549;-65
2023/11/14 00:36:52;;;;;;;5.13;1.67;;;;;;;10.00;100.00;99233.78;4746430;30;20467;-66
2023/11/14 00:39:27;;;;;;;4.10;2.53;;;;;;;9.85;100.00;99244.28;4734667;30;20453;-65
2023/11/14 00:41:59;;;;;;;4.50;1.40;;;;;;;9.69;100.00;99244.16;4751020;30;20211;-65
2023/11/14 00:44:37;;;;;;;5.47;2.00;;;;;;;9.62;100.00;99249.69;4750634;30;20223;-65
2023/11/14 00:47:13;;;;;;;1.50;1.10;;;;;;;9.52;100.00;99257.56;4748967;30;20283;-63
2023/11/14 00:49:46;;;;;;;4.93;2.38;;;;;;;9.47;100.00;99258.28;4735393;30;20526;-66
2023/11/14 00:52:20;;;;;;;9.18;1.30;;;;;;;9.38;100.00;99250.75;4746614;30;20278;-65
2023/11/14 00:54:54;;;;;;;3.55;1.10;;;;;;;9.29;100.00;99257.56;4737120;30;20240;-65
2023/11/14 00:57:28;;;;;;;3.42;1.00;;;;;;;9.23;100.00;99262.00;4751369;30;20208;-65
2023/11/14 01:00:00;;;;;;;2.45;1.45;;;;;;;9.26;100.00;99253.44;4736131;30;20228;-65
2023/11/14 01:02:35;;;;;;;2.63;1.65;;;;;;;9.25;100.00;99256.34;4736653;30;20310;-66
2023/11/14 01:05:11;;;;;;;6.18;2.03;;;;;;;9.26;100.00;99264.22;4735063;30;20299;-65
2023/11/14 01:07:48;;;;;;;5.28;1.13;;;;;;;9.17;100.00;99260.22;4735586;30;20255;-65
2023/11/14 01:10:24;;;;;;;1.70;1.60;;;;;;;9.05;100.00;99265.59;4735261;30;20285;-65
2023/11/14 01:13:00;;;;;;;4.57;1.80;;;;;;;8.98;100.00;99258.69;4749636;30;20289;-65
2023/11/14 01:15:39;;;;;;;1.80;1.45;;;;;;;8.99;100.00;99258.44;4734713;30;20756;-65
2023/11/14 01:18:15;;;;;;;6.85;1.50;;;;;;;8.89;100.00;99262.75;4734719;30;20200;-65
2023/11/14 01:20:48;;;;;;;2.85;1.33;;;;;;;8.99;100.00;99271.13;4734417;30;20216;-65
2023/11/14 01:23:22;;;;;;;1.98;1.45;;;;;;;8.94;100.00;99257.50;4735779;30;20216;-64
2023/11/14 01:25:56;;;;;;;3.55;1.15;;;;;;;8.83;100.00;99266.38;4750395;30;20569;-67
2023/11/14 01:28:35;;;;;;;2.47;1.52;;;;;;;8.82;100.00;99264.72;4736006;30;20681;-67
2023/11/14 01:31:10;;;;;;;13.88;1.80;;;;;;;8.86;100.00;99255.16;4749766;30;20200;-64
2023/11/14 01:33:46;;;;;;;18.15;2.05;;;;;;;8.86;100.00;99250.53;4735485;30;20259;-64
2023/11/14 01:36:21;;;;;;;4.53;1.58;;;;;;;8.84;100.00;99249.16;4734617;30;20208;-65
2023/11/14 01:38:53;;;;;;;4.75;2.78;;;;;;;8.93;100.00;99245.88;4747853;30;20204;-66
2023/11/14 01:41:26;;;;;;;3.13;1.95;;;;;;;8.90;100.00;99249.06;4735533;30;20571;-66
2023/11/14 01:44:00;;;;;;;1.60;1.25;;;;;;;8.94;100.00;99236.75;4748758;30;20231;-66
2023/11/14 01:46:41;;;;;;;2.45;2.25;;;;;;;8.89;100.00;99239.31;4735218;30;20277;-66
2023/11/14 01:49:16;;;;;;;3.50;1.02;;;;;;;8.86;100.00;99239.75;4733681;30;20571;-66
2023/11/14 01:51:51;;;;;;;9.15;1.73;;;;;;;8.91;100.00;99245.28;4735214;30;20200;-65
2023/11/14 01:54:27;;;;;;;2.63;1.50;;;;;;;9.01;100.00;99242.84;4726950;30;20312;-64
2023/11/14 01:57:02;;;;;;;6.28;1.98;;;;;;;9.02;100.00;99239.09;4734923;30;20277;-65
2023/11/14 01:59:35;;;;;;;4.07;1.95;;;;;;;8.97;100.00;99247.06;4734383;30;20244;-64
2023/11/14 02:02:11;;;;;;;5.28;2.33;;;;;;;9.09;100.00;99258.72;4745228;30;20217;-64
2023/11/14 02:04:49;;;;;;;2.13;1.48;;;;;;;9.02;100.00;99259.84;4747796;30;20226;-65
2023/11/14 02:07:24;;;;;;;1.73;1.05;;;;;;;8.99;100.00;99261.16;4748481;30;20204;-66
2023/11/14 02:09:57;;;;;;;2.35;1.98;;;;;;;8.93;100.00;99262.06;4734607;30;20200;-64
2023/11/14 02:12:31;;;;;;;7.43;1.90;;;;;;;8.87;100.00;99268.38;4733854;30;20299;-64
2023/11/14 02:15:05;;;;;;;1.20;1.10;;;;;;;8.91;100.00;99264.16;4734679;30;20224;-64
2023/11/14 02:17:47;;;;;;;3.33;2.88;;;;;;;9.10;100.00;99262.22;4733905;30;20665;-65
2023/11/14 02:20:26;;;;;;;6.15;1.60;;;;;;;9.06;100.00;99272.66;4748804;30;20222;-66
2023/11/14 02:23:03;;;;;;;7.22;1.33;;;;;;;9.12;100.00;99265.50;4742980;30;20208;-65
2023/11/14 02:25:39;;;;;;;8.23;1.73;;;;;;;9.12;100.00;99265.50;4735917;30;20234;-66
2023/11/14 02:28:13;;;;;;;1.65;1.50;;;;;;;9.12;100.00;99263.63;4735174;30;20227;-65
2023/11/14 02:30:45;;;;;;;8.43;2.20;;;;;;;9.08;100.00;99262.47;4739402;30;20240;-67
2023/11/14 02:33:19;;;;;;;7.00;2.08;;;;;;;9.15;100.00;99260.47;4739085;30;20232;-65
2023/11/14 02:35:54;;;;;;;2.45;1.27;;;;;;;9.05;100.00;99260.19;4739016;30;20282;-65
2023/11/14 02:38:30;;;;;;;4.72;2.45;;;;;;;9.07;100.00;99252.72;4735582;30;20226;-65
2023/11/14 02:41:05;;;;;;;2.88;2.00;;;;;;;9.16;100.00;99256.72;4748604;30;20223;-66
2023/11/14 02:43:37;;;;;;;1.92;1.50;;;;;;;9.14;100.00;99253.44;4750459;30;20647;-64
2023/11/14 02:46:14;;;;;;;2.85;1.23;;;;;;;9.14;100.00;99244.53;4733765;30;20270;-64
2023/11/14 02:48:49;;;;;;;2.03;1.70;;;;;;;9.15;100.00;99255.06;4750097;30;20221;-65
2023/11/14 02:51:23;;;;;;;2.05;1.20;;;;;;;9.15;100.00;99244.25;4735184;30;20196;-66
2023/11/14 02:53:57;;;;;;;4.30;1.85;;;;;;;9.05;100.00;99240.53;4739169;30;20220;-64
2023/11/14 02:56:35;;;;;;;6.60;3.05;;;;;;;9.11;100.00;99248.50;4749684;30;20206;-66
2023/11/14 02:59:10;;;;;;;1.63;1.50;;;;;;;9.26;100.00;99256.13;4736349;30;20227;-66
2023/11/14 03:01:45;;;;;;;3.05;1.30;;;;;;;9.34;100.00;99255.00;4738107;30;20219;-67
2023/11/14 03:04:24;;;;;;;2.97;1.85;;;;;;;9.47;100.00;99246.66;4753813;30;20283;-67
2023/11/14 03:06:58;;;;;;;6.38;2.25;;;;;;;9.52;100.00;99244.06;4738144;30;20556;-67
2023/11/14 03:09:36;;;;;;;6.00;1.20;;;;;;;9.65;100.00;99256.50;4753669;30;20204;-66
2023/11/14 03:12:15;;;;;;;2.38;1.73;;;;;;;9.80;100.00;99257.66;4735695;30;20214;-66
2023/11/14 03:14:50;;;;;;;4.17;1.93;;;;;;;9.85;100.00;99252.38;4752095;30;20228;-64
2023/11/14 03:17:23;;;;;;;3.28;1.70;;;;;;;9.99;100.00;99239.44;4750991;30;20493;-65
2023/11/14 03:19:57;;;;;;;5.00;2.10;;;;;;;10.09;100.00;99252.31;4734470;30;20204;-66
2023/11/14 03:22:30;;;;;;;6.13;2.10;;;;;;;10.18;100.00;99253.63;4749275;30;20485;-65
2023/11/14 03:25:03;;;;;;;2.28;1.30;;;;;;;10.29;100.00;99260.88;4747144;30;20521;-66
2023/11/14 03:27:39;;;;;;;5.40;2.17;;;;;;;10.45;100.00;99269.06;4736063;30;20564;-65
2023/11/14 03:30:17;;;;;;;5.90;1.98;;;;;;;10.42;100.00;99266.00;4745000;30;20458;-65
2023/11/14 03:32:52;;;;;;;1.73;0.90;;;;;;;10.46;100.00;99262.59;4754753;30;20208;-66
2023/11/14 03:35:30;;;;;;;1.40;0.97;;;;;;;10.46;100.00;99261.75;4745150;30;20504;-65
2023/11/14 03:38:06;;;;;;;10.13;1.70;;;;;;;10.37;100.00;99255.09;4760501;30;20489;-65
2023/11/14 03:40:40;;;;;;;3.08;1.25;;;;;;;10.22;100.00;99243.97;4765344;30;20478;-66
2023/11/14 03:43:16;;;;;;;8.03;1.63;;;;;;;10.11;100.00;99251.03;4748974;30;20247;-66
2023/11/14 03:45:49;;;;;;;2.50;1.60;;;;;;;9.90;100.00;99262.47;4747978;30;20473;-67
2023/11/14 03:48:23;;;;;;;3.63;1.23;;;;;;;9.93;100.00;99257.41;4745563;30;20535;-66
2023/11/14 03:50:59;;;;;;;6.38;2.30;;;;;;;9.95;100.00;99266.09;4760484;30;20446;-67
2023/11/14 03:53:44;;;;;;;6.77;2.00;;;;;;;10.02;100.00;99266.78;4738528;30;20289;-63
2023/11/14 03:56:21;;;;;;;2.35;1.80;;;;;;;9.96;100.00;99262.34;4758975;30;20491;-67
2023/11/14 03:58:57;;;;;;;3.65;3.35;;;;;;;10.04;100.00;99270.09;4749436;30;20214;-65
2023/11/14 04:01:31;;;;;;;2.97;2.03;;;;;;;10.22;100.00;99266.41;4764822;30;20600;-66
2023/11/14 04:04:05;;;;;;;1.70;1.13;;;;;;;10.06;100.00;99260.91;4762343;30;20516;-66
2023/11/14 04:06:39;;;;;;;3.33;1.43;;;;;;;10.01;100.00;99258.94;4746200;30;20486;-66
2023/11/14 04:09:12;;;;;;;5.57;1.10;;;;;;;9.98;100.00;99268.31;4761917;30;20818;-65
2023/11/14 04:11:47;;;;;;;7.80;1.97;;;;;;;9.98;100.00;99270.19;4752167;30;20485;-66
2023/11/14 04:14:29;;;;;;;4.83;1.13;;;;;;;9.96;100.00;99265.06;4748940;30;20581;-66
2023/11/14 04:17:03;;;;;;;1.57;1.10;;;;;;;9.89;100.00;99267.06;4735216;30;20457;-66
2023/11/14 04:19:38;;;;;;;18.13;2.08;;;;;;;9.87;100.00;99269.19;4735393;30;20576;-65
2023/11/14 04:22:12;;;;;;;33.57;2.30;;;;;;;9.94;100.00;99269.03;4741536;30;20223;-66
2023/11/14 04:24:46;;;;;;;2.60;1.47;;;;;;;9.95;100.00;99266.09;4745327;30;20500;-65
2023/11/14 04:27:22;;;;;;;3.77;1.33;;;;;;;9.98;100.00;99264.78;4730319;30;20507;-67
2023/11/14 04:29:57;;;;;;;6.83;3.17;;;;;;;10.04;100.00;99269.25;4747939;30;20439;-67
2023/11/14 04:32:31;;;;;;;1.07;0.97;;;;;;;10.08;100.00;99270.41;4735248;30;20441;-66
2023/11/14 04:35:06;;;;;;;2.07;0.80;;;;;;;10.12;100.00;99271.59;4734191;30;20525;-66
2023/11/14 04:37:58;;;;;;;4.90;1.20;;;;;;;10.13;100.00;99272.41;4750013;30;20457;-66
2023/11/14 04:40:32;;;;;;;13.53;1.50;;;;;;;10.15;100.00;99259.50;4735234;30;20458;-67
2023/11/14 04:43:06;;;;;;;1.90;1.43;;;;;;;10.21;100.00;99269.38;4747358;30;20513;-64
2023/11/14 04:45:45;;;;;;;1.80;0.97;;;;;;;10.21;100.00;99270.22;4736034;30;20471;-66
2023/11/14 04:48:19;;;;;;;2.90;1.40;;;;;;;10.13;100.00;99267.00;4748318;30;20542;-66
2023/11/14 04:50:57;;;;;;;1.00;0.90;;;;;;;10.21;100.00;99274.78;4735577;30;20429;-65
2023/11/14 04:53:33;;;;;;;10.53;1.80;;;;;;;10.27;100.00;99274.63;4735189;30;20461;-66
2023/11/14 04:56:07;;;;;;;6.50;2.33;;;;;;;10.29;100.00;99282.53;4728297;30;20837;-66
2023/11/14 04:58:43;;;;;;;1.60;0.80;;;;;;;10.20;100.00;99276.66;4734808;30;20462;-67
2023/11/14 05:01:21;;;;;;;5.17;2.60;;;;;;;10.31;100.00;99275.00;4744606;30;20551;-66
2023/11/14 05:03:58;;;;;;;4.33;2.10;;;;;;;10.31;100.00;99269.59;4734394;30;21028;-65
2023/11/14 05:06:39;;;;;;;3.47;1.30;;;;;;;10.43;100.00;99273.06;4734556;30;20561;-65
2023/11/14 05:09:13;;;;;;;5.87;1.57;;;;;;;10.43;100.00;99263.06;4735477;30;20570;-67
2023/11/14 05:11:47;;;;;;;2.03;1.30;;;;;;;10.52;100.00;99260.81;4734831;30;20482;-66
2023/11/14 05:14:22;;;;;;;5.07;1.37;;;;;;;10.54;100.00;99258.69;4736023;30;20577;-65
2023/11/14 05:16:58;;;;;;;4.33;1.40;;;;;;;10.57;99.86;99254.66;4734439;30;20458;-67
2023/11/14 05:19:32;;;;;;;2.10;0.90;;;;;;;10.67;100.00;99257.56;4734772;30;20458;-65
2023/11/14 05:22:08;;;;;;;5.27;1.63;;;;;;;10.68;100.00;99254.63;4749730;30;20478;-67
2023/11/14 05:24:45;;;;;;;2.70;0.90;;;;;;;10.64;100.00;99248.06;4749213;30;20546;-66
2023/11/14 05:27:21;;;;;;;3.40;2.23;;;;;;;10.61;99.73;99251.25;4749551;30;20842;-64
2023/11/14 05:29:55;;;;;;;3.13;1.17;;;;;;;10.79;99.00;99253.75;4735508;30;20447;-63
2023/11/14 05:32:31;;;;;;;0.90;0.70;;;;;;;10.73;98.79;99246.59;4734881;30;20877;-66
2023/11/14 05:35:06;;;;;;;1.50;0.90;;;;;;;10.73;98.55;99246.59;4748581;30;20469;-65
2023/11/14 05:37:44;;;;;;;2.90;1.00;;;;;;;10.74;98.20;99245.56;4734321;30;20497;-66
2023/11/14 05:40:20;;;;;;;4.83;1.20;;;;;;;10.66;99.13;99245.91;4735153;30;20867;-65
2023/11/14 05:42:53;;;;;;;2.30;1.47;;;;;;;10.71;98.55;99243.31;4735705;30;20925;-64
2023/11/14 05:45:26;;;;;;;3.87;1.20;;;;;;;10.70;97.46;99241.66;4749134;30;20552;-65
2023/11/14 05:48:20;;;;;;;2.23;1.17;;;;;;;10.74;97.93;99247.44;4749616;30;20443;-65
2023/11/14 05:50:53;;;;;;;4.30;1.60;;;;;;;10.67;97.61;99242.16;4748623;30;20425;-66
2023/11/14 05:53:26;;;;;;;1.70;0.97;;;;;;;10.59;98.24;99245.25;4748531;30;20578;-67
2023/11/14 05:56:00;;;;;;;5.57;1.07;;;;;;;10.80;98.02;99247.25;4734800;30;20461;-66
2023/11/14 05:58:36;;;;;;;4.10;1.37;;;;;;;10.74;96.98;99242.84;4734849;30;20438;-65
2023/11/14 06:01:11;;;;;;;3.27;1.23;;;;;;;10.75;97.76;99238.22;4749049;30;20461;-66
2023/11/14 06:03:54;;;;;;;6.60;1.13;;;;;;;10.70;97.65;99238.97;4734191;30;20470;-66
2023/11/14 06:06:30;;;;;;;5.70;1.27;;;;;;;10.78;96.51;99237.75;4732988;30;20473;-65
2023/11/14 06:09:04;;;;;;;2.00;1.20;;;;;;;10.72;97.07;99239.56;4747259;30;20458;-65
2023/11/14 06:11:43;;;;;;;1.13;0.80;;;;;;;10.69;96.95;99234.63;4733629;30;20527;-65
2023/11/14 06:14:23;;;;;;;3.73;1.27;;;;;;;10.72;97.08;99244.13;4733040;30;20839;-65
2023/11/14 06:16:58;;;;;;;3.33;1.30;;;;;;;10.79;96.03;99240.22;4734635;30;20445;-64
2023/11/14 06:19:36;;;;;;;4.47;1.20;;;;;;;10.87;96.45;99233.59;4747946;30;20462;-66
2023/11/14 06:22:13;;;;;;;8.50;1.17;;;;;;;10.79;96.24;99234.81;4733228;30;20456;-65
2023/11/14 06:24:46;;;;;;;3.13;1.20;;;;;;;10.94;95.90;99241.56;4747697;30;20478;-66
2023/11/14 06:27:20;;;;;;;1.47;0.80;;;;;;;10.96;95.61;99239.41;4731063;30;20494;-65
2023/11/14 06:29:56;;;;;;;2.20;1.63;;;;;;;10.94;95.65;99242.34;4732183;30;20445;-64
2023/11/14 06:32:35;;;;;;;1.93;1.27;;;;;;;11.01;95.38;99244.91;4743463;30;20443;-66
2023/11/14 06:35:13;;;;;;;1.53;1.23;;;;;;;10.93;95.49;99239.91;4732146;30;20487;-67
2023/11/14 06:37:46;;;;;;;9.60;1.90;;;;;;;11.05;95.87;99248.75;4734117;30;20466;-65
2023/11/14 06:40:18;;;;;;;8.30;1.10;;;;;;;11.06;95.00;99261.25;4733105;30;20536;-65
2023/11/14 06:42:52;;;;;;;2.80;1.43;;;;;;;10.99;94.90;99260.59;4733135;30;20859;-66
2023/11/14 06:45:26;;;;;;;3.07;1.77;;;;;;;11.01;95.42;99251.16;4728747;30;20462;-65
2023/11/14 06:48:01;;;;;;;6.13;1.60;;;;;;;11.05;94.65;99251.47;4733132;30;20486;-66
2023/11/14 06:50:37;;;;;;;3.70;1.70;;;;;;;11.06;95.18;99256.66;4732516;30;20544;-67
2023/11/14 06:53:16;;;;;;;2.90;1.80;;;;;;;11.04;94.83;99252.53;4748301;30;20482;-68
2023/11/14 06:55:52;;;;;;;1.50;1.13;;;;;;;11.12;93.90;99255.69;4733413;30;20452;-66
2023/11/14 06:58:26;;;;;;;4.00;1.47;;;;;;;11.20;92.70;99240.91;4746296;30;20460;-67
2023/11/14 07:00:59;;;;;;;5.20;1.90;;;;;;;11.22;92.51;99244.19;4747622;30;20831;-68
2023/11/14 07:03:33;;;;;;;5.30;2.33;;;;;;;11.20;92.07;99238.19;4746616;30;20988;-68
2023/11/14 07:06:07;;;;;;;2.70;1.37;;;;;;;11.20;92.26;99241.72;4745300;30;20462;-67
2023/11/14 07:08:42;;;;;;;1.43;0.90;;;;;;;11.29;92.22;99247.53;4745961;30;20456;-67
2023/11/14 07:11:15;;;;;;;2.80;1.57;;;;;;;11.39;91.82;99247.72;4733266;30;20432;-68
2023/11/14 07:13:51;;;;;;;6.27;1.33;;;;;;;11.44;91.42;99247.78;4731956;30;20479;-69
2023/11/14 07:16:27;;;;;;;1.70;1.47;;;;;;;11.46;91.00;99256.50;4731122;30;20425;-68
2023/11/14 07:19:03;;;;;;;1.73;1.43;;;;;;;11.51;90.89;99251.16;4745220;30;20472;-68
2023/11/14 07:21:40;;;;;;;4.60;1.43;;;;;;;11.59;90.24;99245.31;4746794;30;20521;-68
2023/11/14 07:24:17;;;;;;;4.57;1.50;;;;;;;11.45;90.31;99257.56;4732784;30;20890;-67
2023/11/14 07:26:51;;;;;;;1.60;1.20;;;;;;;11.52;89.11;99258.19;4731475;30;20470;-66
2023/11/14 07:29:24;;;;;;;5.20;1.83;;;;;;;11.58;88.43;99254.50;4733394;30;20409;-65
2023/11/14 07:31:57;;;;;;;4.60;2.03;;;;;;;11.68;88.77;99253.84;4730390;30;20462;-67
2023/11/14 07:34:30;;;;;;;4.27;1.80;;;;;;;11.67;89.47;99263.84;4732788;30;20456;-67
2023/11/14 07:37:08;;;;;;;6.73;1.27;;;;;;;11.72;88.06;99261.25;4744690;30;21024;-66
2023/11/14 07:39:46;;;;;;;5.43;1.40;;;;;;;11.80;88.16;99261.91;4734241;30;20961;-67
2023/11/14 07:42:20;;;;;;;2.33;0.70;;;;;;;11.86;87.29;99255.50;4732470;30;20484;-67
2023/11/14 07:44:54;;;;;;;6.20;1.70;;;;;;;11.84;87.96;99265.75;4735136;30;20589;-68
2023/11/14 07:47:28;;;;;;;10.17;2.50;;;;;;;11.83;87.94;99255.97;4742660;30;20452;-67
2023/11/14 07:50:04;;;;;;;5.07;1.20;;;;;;;11.84;87.51;99258.44;4749230;30;20637;-67
2023/11/14 07:52:41;;;;;;;4.43;1.83;;;;;;;11.76;87.47;99253.47;4747191;30;20896;-66
2023/11/14 07:55:16;;;;;;;3.43;1.90;;;;;;;11.94;86.83;99258.59;4736799;30;20536;-68
2023/11/14 07:57:52;;;;;;;3.83;1.57;;;;;;;11.99;86.23;99274.09;4732655;30;20454;-66
2023/11/14 08:00:27;;;;;;;2.40;1.53;;;;;;;12.15;86.28;99276.75;4736687;30;20416;-69
2023/11/14 08:03:02;;;;;;;1.83;1.63;;;;;;;12.15;85.26;99271.31;4732385;30;20473;-67
2023/11/14 08:05:42;;;;;;;2.03;1.30;;;;;;;12.03;85.46;99267.91;4735965;30;20858;-67
2023/11/14 08:08:19;;;;;;;7.93;1.40;;;;;;;12.20;85.27;99254.28;4728654;30;20454;-66
2023/11/14 08:10:57;;;;;;;6.43;1.50;;;;;;;12.22;85.54;99254.88;4732137;30;20437;-65
2023/11/14 08:13:31;;;;;;;13.13;1.60;;;;;;;12.31;84.94;99268.81;4743438;30;20470;-66
2023/11/14 08:16:05;;;;;;;4.70;2.80;;;;;;;12.26;85.10;99261.44;4747604;30;20490;-66
2023/11/14 08:18:39;;;;;;;2.03;1.43;;;;;;;12.32;85.12;99265.03;4747113;30;20471;-67
2023/11/14 08:21:12;;;;;;;1.73;1.50;;;;;;;12.31;85.90;99268.81;4733421;30;20436;-68
2023/11/14 08:23:48;;;;;;;2.00;0.97;;;;;;;12.18;85.34;99265.41;4734127;30;20671;-63
2023/11/14 08:26:24;;;;;;;4.47;1.77;;;;;;;12.14;86.71;99266.16;4736820;30;20515;-66
2023/11/14 08:28:58;;;;;;;2.63;1.23;;;;;;;12.16;86.36;99261.28;4749512;30;20450;-68
2023/11/14 08:31:32;;;;;;;2.90;1.33;;;;;;;12.27;86.69;99268.50;4735630;30;20455;-67
2023/11/14 08:34:08;;;;;;;5.03;1.50;;;;;;;12.25;87.10;99270.63;4738805;30;20955;-66
2023/11/14 08:36:43;;;;;;;4.40;1.40;;;;;;;12.30;85.44;99273.41;4738637;30;20505;-66
2023/11/14 08:39:19;;;;;;;1.93;1.70;;;;;;;12.20;87.18;99279.53;4735929;30;20484;-66
2023/11/14 08:42:00;;;;;;;2.20;0.87;;;;;;;12.39;86.45;99282.72;4736784;30;20914;-68
2023/11/14 08:44:38;;;;;;;3.60;0.83;;;;;;;12.39;86.12;99268.38;4736053;30;20480;-66
2023/11/14 08:47:14;;;;;;;1.43;1.27;;;;;;;12.46;85.52;99264.38;4737023;30;20476;-67
2023/11/14 08:49:48;;;;;;;6.20;2.03;;;;;;;12.46;86.73;99266.28;4737871;30;20436;-67
2023/11/14 08:52:27;;;;;;;1.30;0.80;;;;;;;12.39;86.07;99276.50;4737535;30;20429;-67
2023/11/14 08:55:08;;;;;;;2.53;2.20;;;;;;;12.34;85.88;99277.28;4733120;30;20464;-67
2023/11/14 08:57:44;;;;;;;3.73;1.23;;;;;;;12.51;84.40;99275.28;4735686;30;20460;-65
2023/11/14 09:00:19;;;;;;;4.40;1.00;;;;;;;12.51;84.80;99269.03;4735322;30;20423;-66
2023/11/14 09:02:54;;;;;;;9.80;2.20;;;;;;;12.71;84.63;99274.72;4734677;30;20473;-67
2023/11/14 09:05:30;;;;;;;1.97;1.50;;;;;;;12.79;83.61;99276.94;4750429;30;20440;-67
2023/11/14 09:08:09;;;;;;;3.73;2.20;;;;;;;12.87;82.28;99272.97;4739273;30;20432;-67
2023/11/14 09:10:46;;;;;;;2.50;1.07;;;;;;;12.95;82.05;99286.09;4750794;30;20453;-65
2023/11/14 09:13:21;;;;;;;1.80;1.00;;;;;;;13.19;81.85;99282.00;4737873;30;20510;-67
2023/11/14 09:15:56;;;;;;;1.67;1.03;;;;;;;13.12;81.42;99273.22;4735711;30;20853;-66
2023/11/14 09:18:38;;;;;;;7.03;1.90;;;;;;;13.03;79.97;99282.91;4737372;30;20820;-66
2023/11/14 09:21:13;;;;;;;2.80;1.67;;;;;;;12.92;81.37;99292.03;4744950;30;20475;-66
2023/11/14 09:23:51;;;;;;;5.87;1.93;;;;;;;13.04;80.83;99279.09;4734701;30;20988;-66
2023/11/14 09:26:28;;;;;;;3.40;1.10;;;;;;;13.17;80.21;99286.84;4747948;30;20533;-66
2023/11/14 09:29:02;;;;;;;3.63;1.27;;;;;;;13.19;79.23;99282.00;4733390;30;20428;-66
2023/11/14 09:31:37;;;;;;;2.10;1.27;;;;;;;13.10;79.90;99283.50;4747796;30;20452;-66
2023/11/14 09:34:13;;;;;;;2.67;1.20;;;;;;;13.16;79.15;99277.09;4750595;30;20522;-66
2023/11/14 09:36:45;;;;;;;8.07;1.63;;;;;;;13.43;78.63;99277.84;4732417;30;20441;-66
2023/11/14 09:39:21;;;;;;;7.50;1.80;;;;;;;13.49;78.00;99271.38;4748495;30;20902;-67
2023/11/14 09:42:04;;;;;;;2.37;1.07;;;;;;;13.44;78.01;99279.50;4733981;30;20943;-66
2023/11/14 09:44:41;;;;;;;4.20;1.50;;;;;;;13.54;77.74;99267.88;4746300;30;20474;-66
2023/11/14 09:47:21;;;;;;;7.50;2.10;;;;;;;13.45;77.98;99270.28;4734659;30;20433;-65
2023/11/14 09:49:56;;;;;;;1.73;1.63;;;;;;;13.42;77.49;99273.50;4733587;30;20452;-66
2023/11/14 09:52:41;;;;;;;7.83;1.10;;;;;;;13.43;78.26;99277.84;4722174;30;20437;-66
2023/11/14 09:55:17;;;;;;;2.10;1.50;;;;;;;13.29;78.69;99271.22;4731119;30;20437;-67
2023/11/14 09:57:58;;;;;;;3.63;2.10;;;;;;;13.33;78.60;99261.47;4734789;30;20433;-68
2023/11/14 10:00:37;;;;;;;4.20;1.10;;;;;;;13.32;78.89;99265.25;4733938;30;20486;-67
2023/11/14 10:03:13;;;;;;;10.90;1.70;;;;;;;13.21;79.44;99258.13;4730380;30;20927;-67
2023/11/14 10:05:49;;;;;;;2.60;1.40;;;;;;;13.10;79.81;99259.06;4728922;30;20991;-65
2023/11/14 10:08:28;;;;;;;1.90;1.70;;;;;;;13.12;80.37;99270.50;4748227;30;20970;-67
2023/11/14 10:11:11;;;;;;;4.87;1.93;;;;;;;13.11;80.03;99274.34;4730497;30;20443;-67
2023/11/14 10:13:53;;;;;;;1.30;0.90;;;;;;;13.08;80.39;99263.94;4733971;30;20802;-66
2023/11/14 10:16:31;;;;;;;3.93;3.00;;;;;;;13.18;80.61;99266.78;4747042;30;20462;-66
2023/11/14 10:19:14;;;;;;;4.67;1.80;;;;;;;13.31;79.83;99263.63;4744490;30;20437;-69
2023/11/14 10:21:55;;;;;;;3.03;1.33;;;;;;;13.25;79.51;99269.28;4747157;30;20441;-67
2023/11/14 10:24:28;;;;;;;1.83;1.27;;;;;;;13.28;79.62;99266.03;4751387;30;20541;-66
2023/11/14 10:27:03;;;;;;;1.83;1.13;;;;;;;13.37;79.13;99256.34;4749461;30;20449;-68
2023/11/14 10:29:54;;;;;;;3.20;1.50;;;;;;;13.51;78.86;99267.59;4737239;30;20499;-67
2023/11/14 10:32:32;;;;;;;3.30;1.80;;;;;;;13.56;78.42;99265.72;4746744;30;20620;-67
2023/11/14 10:35:19;;;;;;;9.30;1.27;;;;;;;13.64;78.12;99269.88;4747929;30;20468;-65
2023/11/14 10:37:53;;;;;;;10.43;1.90;;;;;;;13.75;76.91;99268.84;4748902;30;20458;-67
2023/11/14 10:40:29;;;;;;;8.97;2.70;;;;;;;13.81;77.61;99251.47;4732067;30;20509;-65
2023/11/14 10:43:09;;;;;;;13.70;2.73;;;;;;;14.07;75.41;99264.16;4734144;30;20481;-67
2023/11/14 10:45:50;;;;;;;2.03;1.47;;;;;;;14.41;74.01;99266.50;4745056;30;20464;-66
2023/11/14 10:48:26;;;;;;;5.13;1.13;;;;;;;14.42;73.47;99262.69;4744884;30;20966;-65
2023/11/14 10:51:02;;;;;;;4.30;1.47;;;;;;;14.56;72.83;99263.84;4733152;30;20440;-67
2023/11/14 10:53:37;;;;;;;1.93;1.00;;;;;;;14.41;72.84;99259.16;4746935;30;20432;-69
2023/11/14 10:56:15;;;;;;;2.43;0.97;;;;;;;14.26;73.49;99250.91;4729544;30;20944;-67
2023/11/14 10:58:53;;;;;;;2.90;1.57;;;;;;;14.35;73.46;99252.84;4732720;30;20440;-66
2023/11/14 11:01:35;;;;;;;6.27;1.40;;;;;;;14.32;73.28;99258.81;4747773;30;20462;-67
2023/11/14 11:04:10;;;;;;;8.13;1.83;;;;;;;14.17;73.98;99275.06;4731510;30;20464;-68
2023/11/14 11:06:54;;;;;;;2.80;2.17;;;;;;;14.06;74.02;99270.66;4745692;30;20433;-65
2023/11/14 11:09:38;;;;;;;5.00;1.77;;;;;;;13.97;74.84;99266.81;4746242;30;20932;-66
2023/11/14 11:12:19;;;;;;;4.73;1.80;;;;;;;13.95;74.88;99252.66;4736222;30;21052;-68
2023/11/14 11:15:01;;;;;;;1.63;1.47;;;;;;;13.86;75.42;99252.31;4738777;30;20449;-66
2023/11/14 11:17:49;;;;;;;3.27;1.77;;;;;;;14.08;74.87;99251.38;4732709;30;20473;-67
2023/11/14 11:20:28;;;;;;;4.60;2.17;;;;;;;14.04;74.95;99264.66;4735478;30;20446;-66
2023/11/14 11:23:12;;;;;;;3.53;1.53;;;;;;;13.83;75.63;99266.47;4745493;30;21031;-68
2023/11/14 11:25:51;;;;;;;5.20;2.27;;;;;;;13.77;76.45;99266.69;4747150;30;20845;-67
2023/11/14 11:28:36;;;;;;;5.57;2.67;;;;;;;13.64;76.75;99261.72;4732590;30;20437;-66
2023/11/14 11:31:14;;;;;;;3.13;1.30;;;;;;;13.62;76.85;99263.84;4747181;30;20458;-67
2023/11/14 11:33:54;;;;;;;3.00;1.13;;;;;;;13.51;77.60;99273.03;4745590;30;20464;-66
2023/11/14 11:36:34;;;;;;;4.50;1.00;;;;;;;13.54;77.75;99276.03;4732563;30;20829;-65
2023/11/14 11:39:16;;;;;;;5.30;1.80;;;;;;;13.56;77.55;99283.91;4732695;30;20547;-66
2023/11/14 11:42:00;;;;;;;2.80;1.50;;;;;;;13.57;77.11;99277.41;4747127;30;20454;-65
2023/11/14 11:44:41;;;;;;;5.00;2.10;;;;;;;13.49;77.12;99284.16;4748327;30;20453;-66
2023/11/14 11:47:37;;;;;;;5.07;1.17;;;;;;;13.60;77.56;99299.47;4747651;30;20468;-66
2023/11/14 11:50:31;;;;;;;3.57;2.30;;;;;;;13.56;78.10;99294.78;4731765;30;20478;-67
2023/11/14 11:53:10;;;;;;;2.63;1.47;;;;;;;13.53;78.77;99298.84;4732648;30;20479;-65
2023/11/14 11:55:50;;;;;;;4.57;1.53;;;;;;;13.53;79.13;99298.84;4744393;30;20440;-66
2023/11/14 11:58:47;;;;;;;6.03;2.63;;;;;;;13.62;78.61;99300.00;4733475;30;20524;-65
2023/11/14 12:01:21;;;;;;;5.27;2.23;;;;;;;13.67;78.00;99299.22;4748314;30;20480;-65
2023/11/14 12:03:58;;;;;;;4.90;1.40;;;;;;;13.80;76.98;99306.94;4749231;30;20515;-66
2023/11/14 12:06:34;;;;;;;8.17;1.90;;;;;;;13.84;76.13;99299.91;4746133;30;21012;-66
2023/11/14 12:09:12;;;;;;;3.80;1.80;;;;;;;13.95;76.60;99301.59;4749139;30;20462;-66
2023/11/14 12:11:49;;;;;;;1.30;1.13;;;;;;;13.92;75.46;99302.13;4737513;30;20823;-67
2023/11/14 12:14:22;;;;;;;2.80;1.10;;;;;;;13.88;76.08;99296.41;4735377;30;20541;-65